createdAt,value
2022-09-20T00:00:43.058Z,0.40
2022-09-20T00:03:21.508Z,0.32
2022-09-20T00:06:12.649Z,0.40
2022-09-20T00:08:50.517Z,0.25
2022-09-20T00:11:28.034Z,0.30
2022-09-20T00:24:53.355Z,0.40
2022-09-20T00:27:31.012Z,0.30
2022-09-20T00:30:00.838Z,0.38
2022-09-20T00:32:29.862Z,0.43
2022-09-20T00:35:14.104Z,0.40
2022-09-20T00:37:49.449Z,0.38
2022-09-20T00:40:19.233Z,0.40
2022-09-20T00:42:49.689Z,0.40
2022-09-20T00:45:49.729Z,0.80
2022-09-20T00:48:32.273Z,1.02
2022-09-20T00:51:08.288Z,0.43
2022-09-20T00:53:47.552Z,0.35
2022-09-20T00:56:21.133Z,0.50
2022-09-20T00:58:59.973Z,0.63
2022-09-20T01:01:29.938Z,0.60
2022-09-20T01:03:57.933Z,0.63
2022-09-20T01:06:29.055Z,0.63
2022-09-20T01:09:04.956Z,0.70
2022-09-20T01:11:32.091Z,0.50
2022-09-20T01:14:01.875Z,0.50
2022-09-20T01:16:33.081Z,0.40
2022-09-20T01:19:17.713Z,0.50
2022-09-20T01:21:48.968Z,0.55
2022-09-20T01:24:56.756Z,0.60
2022-09-20T01:27:45.876Z,0.47
2022-09-20T01:30:32.673Z,0.38
2022-09-20T01:33:38.072Z,0.40
2022-09-20T01:36:13.182Z,0.40
2022-09-20T01:39:08.091Z,0.50
2022-09-20T01:41:42.015Z,0.50
2022-09-20T01:44:47.543Z,0.55
2022-09-20T01:47:25.851Z,0.60
2022-09-20T01:50:03.571Z,0.60
2022-09-20T01:53:08.358Z,0.43
2022-09-20T01:55:57.057Z,0.50
2022-09-20T01:58:32.573Z,0.70
2022-09-20T02:01:32.934Z,0.50
2022-09-20T02:04:25.980Z,0.57
2022-09-20T02:07:19.315Z,0.90
2022-09-20T02:10:09.047Z,0.80
2022-09-20T02:12:52.495Z,0.90
2022-09-20T02:15:34.211Z,1.17
2022-09-20T02:18:09.994Z,0.90
2022-09-20T02:20:57.957Z,1.23
2022-09-20T02:23:45.169Z,0.98
2022-09-20T02:26:31.232Z,1.10
2022-09-20T02:29:31.650Z,1.42
2022-09-20T02:32:21.636Z,0.80
2022-09-20T02:35:04.230Z,1.03
2022-09-20T02:37:45.609Z,1.25
2022-09-20T02:40:40.522Z,1.08
2022-09-20T02:43:17.632Z,1.20
2022-09-20T02:45:51.033Z,1.40
2022-09-20T02:48:24.728Z,1.20
2022-09-20T02:50:59.685Z,1.05
2022-09-20T02:54:14.012Z,1.20
2022-09-20T02:57:04.219Z,1.30
2022-09-20T03:00:03.311Z,1.60
2022-09-20T03:02:54.913Z,1.03
2022-09-20T03:05:36.395Z,1.13
2022-09-20T03:08:21.765Z,1.10
2022-09-20T03:11:21.648Z,0.85
2022-09-20T03:14:16.244Z,1.30
2022-09-20T03:17:01.142Z,1.53
2022-09-20T03:19:46.536Z,1.20
2022-09-20T03:22:47.970Z,1.40
2022-09-20T03:25:41.299Z,1.10
2022-09-20T03:28:46.895Z,1.52
2022-09-20T03:31:34.323Z,1.30
2022-09-20T03:34:31.993Z,1.83
2022-09-20T03:37:23.239Z,1.90
2022-09-20T03:39:58.978Z,1.88
2022-09-20T03:42:30.817Z,1.92
2022-09-20T03:45:20.116Z,2.00
2022-09-20T03:48:06.565Z,1.35
2022-09-20T03:51:03.394Z,1.70
2022-09-20T03:53:48.765Z,1.83
2022-09-20T03:56:41.488Z,1.85
2022-09-20T03:59:30.238Z,2.87
2022-09-20T04:02:29.664Z,2.55
2022-09-20T04:05:07.595Z,2.33
2022-09-20T04:07:55.836Z,3.28
2022-09-20T04:10:29.839Z,3.17
2022-09-20T04:13:07.794Z,1.90
2022-09-20T04:15:44.258Z,1.92
2022-09-20T04:18:25.197Z,1.65
2022-09-20T04:21:19.092Z,2.25
2022-09-20T04:24:24.014Z,3.35
2022-09-20T04:27:20.476Z,2.77
2022-09-20T04:30:04.272Z,1.70
2022-09-20T04:32:59.037Z,1.77
2022-09-20T04:35:50.226Z,2.45
2022-09-20T04:38:20.051Z,2.25
2022-09-20T04:40:55.993Z,10.07
2022-09-20T04:43:53.033Z,2.85
2022-09-20T04:46:55.865Z,2.25
2022-09-20T04:49:56.168Z,1.45
2022-09-20T04:52:25.653Z,2.00
2022-09-20T04:55:29.853Z,1.77
2022-09-20T04:58:32.516Z,3.45
2022-09-20T05:01:11.491Z,1.90
2022-09-20T05:04:18.084Z,2.83
2022-09-20T05:07:14.342Z,2.80
2022-09-20T05:09:56.400Z,2.73
2022-09-20T05:12:35.187Z,2.08
2022-09-20T05:15:35.372Z,2.38
2022-09-20T05:18:29.252Z,2.67
2022-09-20T05:21:01.795Z,1.60
2022-09-20T05:23:55.327Z,2.10
2022-09-20T05:26:31.179Z,2.00
2022-09-20T05:29:27.156Z,1.95
2022-09-20T05:32:25.219Z,1.90
2022-09-20T05:35:06.969Z,2.35
2022-09-20T05:38:11.075Z,2.03
2022-09-20T05:41:02.412Z,1.83
2022-09-20T05:43:53.767Z,1.77
2022-09-20T05:46:33.192Z,1.95
2022-09-20T05:49:16.629Z,2.53
2022-09-20T05:52:00.357Z,2.17
2022-09-20T05:54:58.977Z,1.98
2022-09-20T05:57:35.215Z,2.13
2022-09-20T06:00:16.570Z,2.00
2022-09-20T06:02:56.711Z,2.25
2022-09-20T06:05:55.277Z,2.10
2022-09-20T06:09:02.770Z,2.55
2022-09-20T06:11:48.176Z,2.22
2022-09-20T06:14:22.484Z,1.83
2022-09-20T06:17:24.856Z,1.90
2022-09-20T06:20:18.699Z,1.93
2022-09-20T06:22:49.689Z,2.20
2022-09-20T06:25:23.169Z,1.70
2022-09-20T06:28:05.860Z,1.65
2022-09-20T06:30:43.096Z,1.80
2022-09-20T06:33:12.918Z,1.70
2022-09-20T06:35:59.311Z,1.13
2022-09-20T06:38:49.616Z,1.30
2022-09-20T06:41:16.790Z,1.33
2022-09-20T06:43:43.689Z,1.80
2022-09-20T06:46:12.224Z,1.20
2022-09-20T06:48:39.436Z,1.30
2022-09-20T06:51:08.307Z,1.33
2022-09-20T06:53:39.577Z,1.45
2022-09-20T06:56:16.233Z,1.48
2022-09-20T06:58:43.165Z,1.10
2022-09-20T07:01:10.177Z,1.20
2022-09-20T07:03:37.652Z,1.20
2022-09-20T07:06:07.450Z,1.10
2022-09-20T07:08:40.649Z,1.17
2022-09-20T07:11:12.852Z,1.27
2022-09-20T07:13:39.909Z,1.40
2022-09-20T07:16:09.210Z,1.20
2022-09-20T07:18:42.030Z,1.13
2022-09-20T07:21:13.709Z,1.00
2022-09-20T07:23:41.062Z,0.90
2022-09-20T07:26:16.772Z,1.02
2022-09-20T07:28:46.938Z,1.05
2022-09-20T07:31:14.117Z,0.80
2022-09-20T07:33:41.434Z,0.90
2022-09-20T07:36:13.630Z,0.73
2022-09-20T07:38:44.988Z,1.38
2022-09-20T07:41:12.449Z,0.60
2022-09-20T07:43:41.873Z,1.02
2022-09-20T07:46:09.892Z,1.13
2022-09-20T07:48:43.916Z,0.77
2022-09-20T07:51:13.983Z,0.85
2022-09-20T07:53:41.876Z,0.90
2022-09-20T07:56:13.418Z,0.90
2022-09-20T07:58:40.863Z,0.65
2022-09-20T08:01:10.544Z,0.77
2022-09-20T08:03:37.623Z,0.60
2022-09-20T08:06:12.540Z,0.60
2022-09-20T08:08:40.607Z,0.80
2022-09-20T08:11:13.815Z,0.80
2022-09-20T08:16:32.563Z,0.50
2022-09-20T08:19:03.848Z,0.70
2022-09-20T08:21:33.115Z,5.57
2022-09-20T08:24:00.762Z,0.60
2022-09-20T08:26:30.275Z,0.70
2022-09-20T08:28:59.334Z,1.40
2022-09-20T08:31:28.908Z,0.70
2022-09-20T08:33:55.771Z,2.53
2022-09-20T08:36:24.876Z,0.75
2022-09-20T08:41:53.052Z,0.50
2022-09-20T08:44:45.044Z,0.50
2022-09-20T08:47:28.366Z,0.57
2022-09-20T08:49:57.368Z,0.82
2022-09-20T08:52:37.238Z,0.37
2022-09-20T08:55:16.355Z,0.60
2022-09-20T08:57:44.272Z,0.50
2022-09-20T09:00:26.197Z,0.60
2022-09-20T09:02:56.612Z,0.68
2022-09-20T09:05:31.683Z,0.43
2022-09-20T09:08:00.447Z,0.60
2022-09-20T09:10:43.754Z,0.60
2022-09-20T09:13:42.650Z,0.70
2022-09-20T09:16:22.668Z,0.70
2022-09-20T09:18:51.193Z,0.47
2022-09-20T09:21:21.088Z,0.52
2022-09-20T09:24:19.780Z,0.70
2022-09-20T09:26:46.603Z,0.45
2022-09-20T09:29:17.366Z,0.50
2022-09-20T09:31:47.364Z,0.60
2022-09-20T09:34:30.544Z,0.50
2022-09-20T09:36:58.713Z,0.50
2022-09-20T09:39:31.241Z,0.57
2022-09-20T09:41:58.951Z,0.60
2022-09-20T09:44:28.333Z,0.70
2022-09-20T09:46:57.047Z,0.60
2022-09-20T09:49:32.048Z,0.60
2022-09-20T09:52:16.061Z,0.50
2022-09-20T09:54:47.473Z,0.60
2022-09-20T09:57:29.185Z,0.67
2022-09-20T10:00:09.494Z,0.50
2022-09-20T10:03:06.204Z,0.60
2022-09-20T10:05:54.090Z,0.68
2022-09-20T10:08:42.635Z,0.63
2022-09-20T10:11:24.733Z,0.60
2022-09-20T10:14:14.335Z,0.60
2022-09-20T10:17:17.205Z,0.50
2022-09-20T10:20:02.997Z,0.63
2022-09-20T10:23:24.205Z,0.60
2022-09-20T10:25:51.719Z,0.60
2022-09-20T10:28:45.850Z,0.50
2022-09-20T10:31:25.679Z,0.63
2022-09-20T10:34:26.596Z,0.70
2022-09-20T10:37:00.354Z,0.70
2022-09-20T10:39:41.017Z,0.80
2022-09-20T10:42:23.945Z,0.80
2022-09-20T10:44:57.151Z,0.80
2022-09-20T10:47:32.884Z,0.80
2022-09-20T10:50:25.872Z,0.60
2022-09-20T10:53:32.835Z,0.77
2022-09-20T10:56:18.189Z,0.90
2022-09-20T10:59:22.128Z,0.60
2022-09-20T11:02:06.980Z,0.90
2022-09-20T11:04:55.114Z,0.63
2022-09-20T11:07:37.089Z,0.90
2022-09-20T11:10:15.086Z,0.82
2022-09-20T11:12:48.626Z,0.98
2022-09-20T11:15:21.687Z,0.65
2022-09-20T11:18:01.384Z,0.70
2022-09-20T11:20:33.611Z,0.80
2022-09-20T11:23:12.012Z,0.70
2022-09-20T11:25:45.299Z,0.90
2022-09-20T11:28:17.504Z,0.63
2022-09-20T11:30:56.298Z,0.80
2022-09-20T11:33:30.551Z,1.00
2022-09-20T11:36:08.476Z,0.77
2022-09-20T11:38:49.678Z,0.80
2022-09-20T11:41:26.337Z,0.90
2022-09-20T11:43:56.167Z,1.27
2022-09-20T11:46:35.850Z,0.93
2022-09-20T11:49:28.108Z,0.95
2022-09-20T11:51:54.936Z,0.80
2022-09-20T11:54:39.102Z,0.80
2022-09-20T11:57:06.528Z,0.93
2022-09-20T11:59:41.314Z,1.00
2022-09-20T12:02:37.077Z,0.90
2022-09-20T12:05:24.294Z,0.80
2022-09-20T12:07:55.292Z,1.08
2022-09-20T12:10:28.424Z,0.88
2022-09-20T12:12:58.710Z,0.90
2022-09-20T12:15:34.449Z,1.10
2022-09-20T12:18:04.366Z,1.00
2022-09-20T12:20:33.624Z,0.75
2022-09-20T12:23:37.782Z,0.90
2022-09-20T12:26:10.856Z,0.60
2022-09-20T12:29:57.474Z,0.80
2022-09-20T12:34:40.319Z,1.10
2022-09-20T12:37:07.965Z,0.82
2022-09-20T12:39:39.309Z,1.00
2022-09-20T12:42:06.333Z,1.13
2022-09-20T12:44:51.452Z,1.00
2022-09-20T12:47:30.338Z,1.02
2022-09-20T12:49:59.319Z,0.73
2022-09-20T12:52:38.329Z,0.80
2022-09-20T12:55:08.984Z,1.10
2022-09-20T12:57:39.259Z,0.80
2022-09-20T13:00:08.729Z,0.88
2022-09-20T13:02:53.976Z,0.90
2022-09-20T13:05:47.095Z,0.70
2022-09-20T13:08:23.744Z,0.60
2022-09-20T13:11:08.812Z,0.45
2022-09-20T13:13:50.793Z,0.52
2022-09-20T13:16:49.953Z,0.77
2022-09-20T13:19:30.656Z,1.07
2022-09-20T13:22:03.634Z,1.15
2022-09-20T13:24:59.139Z,0.80
2022-09-20T13:27:39.131Z,0.77
2022-09-20T13:30:17.467Z,1.00
2022-09-20T13:32:45.694Z,0.90
2022-09-20T13:35:12.537Z,0.80
2022-09-20T13:37:51.747Z,0.65
2022-09-20T13:40:31.575Z,0.70
2022-09-20T13:43:22.205Z,0.80
2022-09-20T13:45:47.869Z,0.80
2022-09-20T13:48:16.985Z,0.50
2022-09-20T13:50:48.099Z,0.60
2022-09-20T13:53:33.556Z,0.80
2022-09-20T13:56:16.573Z,0.80
2022-09-20T13:58:43.730Z,0.80
2022-09-20T14:01:38.189Z,0.70
2022-09-20T14:04:19.890Z,0.77
2022-09-20T14:06:49.652Z,0.50
2022-09-20T14:09:28.376Z,0.70
2022-09-20T14:11:55.973Z,0.80
2022-09-20T14:14:27.963Z,0.80
2022-09-20T14:16:57.009Z,0.75
2022-09-20T14:19:32.149Z,0.73
2022-09-20T14:22:08.710Z,0.70
2022-09-20T14:24:37.231Z,0.70
2022-09-20T14:27:22.812Z,0.70
2022-09-20T14:29:52.037Z,0.50
2022-09-20T14:32:19.039Z,1.55
2022-09-20T14:35:07.510Z,0.80
2022-09-20T14:37:41.413Z,0.70
2022-09-20T14:40:24.334Z,0.70
2022-09-20T14:42:51.207Z,0.63
2022-09-20T14:45:24.792Z,1.10
2022-09-20T14:48:11.127Z,0.70
2022-09-20T14:51:16.385Z,0.70
2022-09-20T14:53:44.716Z,0.73
2022-09-20T14:56:14.475Z,0.60
2022-09-20T14:59:12.513Z,0.90
2022-09-20T15:01:42.637Z,0.68
2022-09-20T15:04:24.928Z,0.90
2022-09-20T15:06:52.197Z,1.02
2022-09-20T15:09:20.990Z,0.68
2022-09-20T15:11:58.771Z,0.80
2022-09-20T15:14:25.515Z,0.60
2022-09-20T15:16:52.394Z,0.73
2022-09-20T15:19:19.215Z,0.80
2022-09-20T15:21:46.144Z,1.00
2022-09-20T15:24:13.099Z,0.90
2022-09-20T15:26:40.033Z,0.85
2022-09-20T15:29:06.746Z,1.00
2022-09-20T15:31:33.707Z,0.80
2022-09-20T15:34:00.793Z,0.77
2022-09-20T15:36:27.736Z,1.20
2022-09-20T15:38:54.953Z,0.65
2022-09-20T15:41:22.553Z,1.03
2022-09-20T15:43:49.424Z,0.80
2022-09-20T15:46:24.890Z,0.82
2022-09-20T15:48:51.771Z,0.90
2022-09-20T15:51:18.816Z,2.28
2022-09-20T15:53:47.088Z,3.63
2022-09-20T15:56:18.735Z,1.20
2022-09-20T15:58:47.636Z,1.08
2022-09-20T16:01:15.543Z,1.98
2022-09-20T16:03:43.788Z,2.00
2022-09-20T16:06:11.530Z,1.07
2022-09-20T16:08:40.650Z,1.20
2022-09-20T16:11:09.552Z,1.27
2022-09-20T16:13:36.810Z,1.20
2022-09-20T16:16:04.466Z,1.10
2022-09-20T16:18:31.452Z,1.00
2022-09-20T16:21:07.047Z,1.15
2022-09-20T16:23:34.033Z,1.33
2022-09-20T16:26:00.853Z,1.17
2022-09-20T16:28:27.773Z,6.38
2022-09-20T16:30:58.778Z,5.60
2022-09-20T16:33:26.381Z,1.50
2022-09-20T16:35:53.532Z,1.38
2022-09-20T16:38:20.417Z,1.23
2022-09-20T16:40:51.112Z,1.30
2022-09-20T16:43:18.379Z,1.40
2022-09-20T16:45:45.392Z,2.72
2022-09-20T16:48:17.503Z,6.47
2022-09-20T16:50:54.791Z,1.50
2022-09-20T16:53:21.778Z,1.45
2022-09-20T16:55:48.735Z,1.30
2022-09-20T16:58:16.375Z,1.25
2022-09-20T17:00:43.644Z,1.25
2022-09-20T17:03:11.114Z,1.10
2022-09-20T17:05:38.189Z,1.40
2022-09-20T17:08:05.018Z,1.30
2022-09-20T17:10:31.930Z,1.77
2022-09-20T17:12:58.889Z,1.30
2022-09-20T17:15:25.768Z,1.60
2022-09-20T17:17:52.766Z,1.58
2022-09-20T17:20:19.704Z,1.80
2022-09-20T17:22:46.853Z,1.60
2022-09-20T17:25:13.716Z,2.03
2022-09-20T17:27:40.649Z,1.90
2022-09-20T17:30:08.019Z,1.65
2022-09-20T17:32:34.818Z,1.33
2022-09-20T17:35:01.816Z,1.73
2022-09-20T17:37:28.686Z,1.77
2022-09-20T17:39:55.543Z,1.70
2022-09-20T17:42:22.660Z,1.60
2022-09-20T17:44:49.605Z,1.97
2022-09-20T17:47:16.584Z,1.50
2022-09-20T17:49:43.545Z,1.52
2022-09-20T17:52:10.646Z,1.40
2022-09-20T17:54:37.514Z,1.90
2022-09-20T17:57:04.619Z,2.07
2022-09-20T17:59:31.789Z,2.22
2022-09-20T18:01:58.808Z,1.90
2022-09-20T18:04:25.948Z,1.63
2022-09-20T18:06:54.338Z,1.77
2022-09-20T18:09:23.702Z,1.97
2022-09-20T18:11:53.163Z,1.60
2022-09-20T18:14:28.112Z,1.60
2022-09-20T18:16:57.731Z,2.17
2022-09-20T18:19:24.854Z,2.17
2022-09-20T18:21:52.032Z,1.60
2022-09-20T18:24:19.486Z,1.90
2022-09-20T18:26:46.460Z,2.00
2022-09-20T18:29:15.695Z,5.15
2022-09-20T18:31:46.806Z,4.00
2022-09-20T18:34:16.100Z,2.53
2022-09-20T18:36:43.095Z,2.55
2022-09-20T18:39:10.252Z,2.60
2022-09-20T18:41:39.301Z,1.92
2022-09-20T18:44:07.462Z,2.08
2022-09-20T18:46:35.710Z,2.20
2022-09-20T18:49:05.210Z,2.40
2022-09-20T18:51:37.172Z,1.80
2022-09-20T18:54:06.582Z,2.65
2022-09-20T18:56:35.409Z,2.38
2022-09-20T18:59:07.450Z,2.00
2022-09-20T19:01:52.723Z,2.47
2022-09-20T19:04:57.333Z,1.90
2022-09-20T19:08:02.829Z,3.58
2022-09-20T19:10:56.093Z,3.08
2022-09-20T19:13:50.316Z,1.70
2022-09-20T19:16:31.904Z,2.10
2022-09-20T19:19:10.929Z,1.95
2022-09-20T19:21:46.134Z,1.75
2022-09-20T19:24:33.271Z,2.38
2022-09-20T19:27:03.010Z,6.97
2022-09-20T19:29:32.663Z,2.60
2022-09-20T19:32:02.712Z,3.00
2022-09-20T19:34:31.940Z,2.25
2022-09-20T19:37:26.907Z,1.80
2022-09-20T19:40:23.045Z,1.80
2022-09-20T19:42:57.187Z,1.48
2022-09-20T19:45:47.684Z,1.90
2022-09-20T19:48:19.329Z,1.80
2022-09-20T19:50:50.428Z,1.88
2022-09-20T19:53:19.968Z,2.00
2022-09-20T19:55:52.707Z,1.45
2022-09-20T19:58:20.557Z,2.20
2022-09-20T20:00:48.019Z,4.30
2022-09-20T20:03:16.778Z,3.30
2022-09-20T20:05:54.593Z,1.70
2022-09-20T20:08:37.263Z,1.80
2022-09-20T20:11:41.671Z,1.58
2022-09-20T20:14:40.424Z,1.38
2022-09-20T20:17:19.488Z,1.52
2022-09-20T20:20:01.132Z,1.70
2022-09-20T20:22:37.289Z,1.77
2022-09-20T20:25:05.392Z,1.70
2022-09-20T20:27:32.269Z,1.38
2022-09-20T20:29:59.335Z,1.30
2022-09-20T20:32:26.377Z,1.73
2022-09-20T20:34:53.475Z,1.25
2022-09-20T20:37:20.329Z,1.83
2022-09-20T20:39:50.232Z,1.63
2022-09-20T20:42:20.956Z,1.42
2022-09-20T20:44:47.818Z,2.40
2022-09-20T20:47:15.152Z,1.77
2022-09-20T20:49:41.993Z,2.28
2022-09-20T20:52:08.874Z,2.38
2022-09-20T20:54:36.316Z,2.55
2022-09-20T20:57:03.364Z,2.17
2022-09-20T20:59:30.311Z,2.05
2022-09-20T21:01:57.421Z,2.10
2022-09-20T21:04:24.494Z,2.30
2022-09-20T21:06:51.573Z,2.70
2022-09-20T21:09:18.966Z,2.03
2022-09-20T21:11:45.983Z,2.30
2022-09-20T21:14:13.208Z,2.33
2022-09-20T21:16:42.297Z,2.38
2022-09-20T21:19:10.872Z,2.10
2022-09-20T21:21:39.752Z,1.90
2022-09-20T21:24:08.810Z,1.92
2022-09-20T21:26:37.357Z,1.67
2022-09-20T21:29:10.515Z,2.08
2022-09-20T21:31:39.643Z,5.13
2022-09-20T21:34:11.078Z,4.53
2022-09-20T21:36:39.697Z,3.95
2022-09-20T21:39:07.404Z,3.92
2022-09-20T21:41:36.608Z,2.10
2022-09-20T21:44:05.537Z,1.95
2022-09-20T21:46:37.483Z,2.30
2022-09-20T21:49:06.539Z,2.50
2022-09-20T21:51:35.744Z,2.88
2022-09-20T21:54:03.329Z,3.38
2022-09-20T21:56:32.935Z,2.75
2022-09-20T21:59:00.575Z,2.77
2022-09-20T22:01:29.332Z,3.10
2022-09-20T22:03:58.793Z,2.53
2022-09-20T22:06:28.248Z,2.70
2022-09-20T22:08:57.603Z,2.72
2022-09-20T22:11:26.993Z,2.40
2022-09-20T22:13:55.532Z,2.03
2022-09-20T22:16:28.124Z,2.25
2022-09-20T22:18:58.074Z,2.10
2022-09-20T22:21:28.835Z,3.08
2022-09-20T22:23:57.756Z,2.60
2022-09-20T22:26:30.683Z,2.15
2022-09-20T22:28:58.743Z,2.72
2022-09-20T22:31:27.909Z,2.40
2022-09-20T22:33:57.352Z,2.75
2022-09-20T22:36:26.877Z,2.53
2022-09-20T22:38:54.751Z,2.45
2022-09-20T22:41:22.689Z,2.50
2022-09-20T22:43:52.207Z,2.30
2022-09-20T22:46:21.837Z,1.48
2022-09-20T22:48:49.680Z,1.90
2022-09-20T22:51:25.033Z,1.85
2022-09-20T22:53:54.766Z,2.15
2022-09-20T22:56:29.378Z,1.67
2022-09-20T22:58:58.913Z,1.73
2022-09-20T23:01:31.696Z,1.73
2022-09-20T23:04:05.351Z,1.80
2022-09-20T23:06:38.913Z,2.20
2022-09-20T23:09:08.913Z,1.80
2022-09-20T23:11:36.413Z,1.67
2022-09-20T23:14:05.192Z,1.67
2022-09-20T23:16:35.544Z,1.80
2022-09-20T23:19:04.529Z,1.60
2022-09-20T23:21:32.314Z,1.50
2022-09-20T23:24:04.953Z,2.00
2022-09-20T23:26:35.212Z,2.10
2022-09-20T23:29:11.756Z,1.27
2022-09-20T23:31:40.635Z,1.63
2022-09-20T23:34:08.875Z,1.77
2022-09-20T23:36:38.221Z,1.80
2022-09-20T23:39:07.340Z,1.47
2022-09-20T23:41:34.812Z,1.30
2022-09-20T23:44:02.151Z,1.35
2022-09-20T23:46:29.416Z,1.63
2022-09-20T23:48:56.447Z,1.50
2022-09-20T23:51:25.287Z,1.90
2022-09-20T23:53:54.025Z,2.33
2022-09-20T23:56:22.957Z,2.10
2022-09-20T23:58:52.934Z,1.85
